Fairfield, Mississippi
Current Conditions -  °F | °C
As of 7:53 PM on Friday 28 Nov 2014 (Local Time) from KTUP Reporting Station
Clear Clear  
Wind Chill: 39°   Ceiling: Unl
Heat Index: 44°   Visibility: 10mi
Dew Point: 27°   Wind: 10mph
Humidity: 51%   Direction: 200°SSW
Pressure: 30.21"   Gusts: NA
Location:  34.4333°N, 88.8629°W
Report Text: KTUP 290153Z AUTO 20009KT 10SM CLR 07/M03 A3021 RMK AO2 SLP230 T00671028 $
Loading
Personal Weather Stations






























Interactive Weather Map New forecast layout! Learn more

10-Day Weather Forecast

Advertisements
Track Severe Weather on mobile